createdAt,value
2023-05-23T11:23:47.062Z,22.70
2023-05-23T11:24:47.027Z,24.40
2023-05-23T11:25:47.021Z,26.70
2023-05-23T11:26:46.991Z,27.60
2023-05-23T11:27:46.979Z,26.70
2023-05-23T11:28:46.983Z,25.80
2023-05-23T11:29:46.961Z,27.10
2023-05-23T11:30:46.932Z,27.30
2023-05-23T11:31:46.957Z,25.40
2023-05-23T11:32:46.981Z,22.90
2023-05-23T11:33:46.878Z,20.10
2023-05-23T11:34:46.868Z,19.90
2023-05-23T11:37:18.895Z,21.60
2023-05-23T11:44:18.964Z,17.30
2023-05-23T11:45:18.957Z,19.40
2023-05-23T11:46:18.955Z,19.70
2023-05-23T11:47:18.981Z,19.70
2023-05-23T11:48:18.931Z,19.40
2023-05-23T11:49:18.873Z,19.20
2023-05-23T11:50:18.869Z,17.90
2023-05-23T11:51:18.860Z,15.70
2023-05-23T11:52:18.833Z,17.20
2023-05-23T11:53:18.825Z,17.90
2023-05-23T11:54:18.824Z,17.10
2023-05-23T11:55:18.802Z,15.50
2023-05-23T11:56:18.801Z,16.80
2023-05-23T11:57:18.776Z,15.30
2023-05-23T11:58:18.786Z,16.50
2023-05-23T11:59:18.742Z,17.90
2023-05-23T12:00:18.745Z,16.40
2023-05-23T12:01:18.714Z,17.30
2023-05-23T12:02:39.005Z,13.30
2023-05-23T12:03:38.945Z,17.50
2023-05-23T12:04:38.868Z,17.70
2023-05-23T12:08:25.913Z,14.20
2023-05-23T12:09:25.893Z,15.00
2023-05-23T12:10:25.908Z,15.90
2023-05-23T12:11:25.854Z,16.60
2023-05-23T12:12:25.840Z,18.00
2023-05-23T12:13:25.854Z,17.40
2023-05-23T12:14:25.829Z,18.10
2023-05-23T12:15:25.793Z,16.80
2023-05-23T12:16:25.851Z,15.30
2023-05-23T12:17:25.786Z,17.50
2023-05-23T12:18:25.787Z,17.70
2023-05-23T12:19:25.767Z,17.80
2023-05-23T12:20:25.760Z,16.80
2023-05-23T12:21:25.720Z,18.00
2023-05-23T12:22:25.694Z,17.60
2023-05-23T12:23:25.704Z,17.80
2023-05-23T12:24:25.682Z,17.90
2023-05-23T12:25:25.645Z,18.40
2023-05-23T12:26:25.631Z,19.80
2023-05-23T12:27:25.618Z,20.30
2023-05-23T12:28:25.644Z,19.80
2023-05-23T12:29:25.587Z,20.90
2023-05-23T12:30:25.590Z,20.70
2023-05-23T12:31:25.640Z,21.10
2023-05-23T12:32:25.566Z,20.90
2023-05-23T12:35:26.725Z,20.70
2023-05-23T12:36:27.458Z,24.10
2023-05-23T12:37:26.696Z,24.70
2023-05-23T12:38:26.678Z,26.60
2023-05-23T12:39:26.669Z,26.90
2023-05-23T12:40:26.622Z,26.60
2023-05-23T12:41:26.624Z,27.20
2023-05-23T12:42:27.823Z,24.80
2023-05-23T12:43:26.621Z,25.20
2023-05-23T12:44:26.575Z,26.20
2023-05-23T12:45:26.573Z,23.80
2023-05-23T12:46:26.597Z,23.50
2023-05-23T12:47:26.654Z,21.60
2023-05-23T12:50:22.067Z,17.60
2023-05-23T12:51:22.058Z,20.20
2023-05-23T12:52:22.048Z,18.70
2023-05-23T12:53:24.349Z,18.40
2023-05-23T12:54:22.006Z,15.30
2023-05-23T12:55:21.996Z,14.90
2023-05-23T12:56:21.957Z,14.40
2023-05-23T12:57:21.979Z,13.20
2023-05-23T12:58:21.946Z,12.70
2023-05-23T12:59:21.934Z,11.50
2023-05-23T13:00:21.942Z,11.30
2023-05-23T13:01:21.973Z,11.70
2023-05-23T13:02:21.954Z,10.70
2023-05-23T13:03:21.927Z,10.50
2023-05-23T13:04:21.990Z,10.30
2023-05-23T13:05:21.853Z,11.10
2023-05-23T13:06:21.810Z,8.90
2023-05-23T13:07:21.825Z,9.00
2023-05-23T13:14:10.104Z,5.40
2023-05-23T13:15:10.076Z,5.60
2023-05-23T13:40:57.688Z,5.90
2023-05-23T13:41:57.681Z,7.20
2023-05-23T13:42:57.658Z,7.40
2023-05-23T13:43:57.629Z,9.60
2023-05-23T13:44:57.619Z,8.30
2023-05-23T13:45:57.615Z,8.10
2023-05-23T13:46:57.609Z,8.10
2023-05-23T13:47:57.594Z,8.30
2023-05-23T13:48:57.569Z,7.70
2023-05-23T13:49:57.533Z,8.00
2023-05-23T14:14:59.572Z,6.80
2023-05-23T14:15:59.607Z,7.90
2023-05-23T14:16:59.517Z,7.30
2023-05-23T14:17:59.568Z,7.10
2023-05-23T14:18:59.569Z,6.50
2023-05-23T14:19:59.488Z,5.80
2023-05-23T14:20:59.471Z,6.30
2023-05-23T14:21:59.455Z,6.60
2023-05-23T14:22:59.449Z,8.10
2023-05-23T14:23:59.457Z,8.50
2023-05-23T14:24:59.411Z,8.90
2023-05-23T14:25:59.390Z,8.10
2023-05-23T14:26:59.366Z,8.20
2023-05-23T14:27:59.387Z,7.70
2023-05-23T14:28:59.360Z,7.50
2023-05-23T14:29:59.342Z,7.40
2023-05-23T14:32:07.721Z,7.90
2023-05-23T14:33:10.571Z,8.30
2023-05-23T14:34:07.646Z,8.60
2023-05-23T14:35:07.646Z,9.30
2023-05-23T14:36:07.638Z,9.30
2023-05-23T14:37:07.636Z,9.00
2023-05-23T14:38:07.630Z,8.40
2023-05-23T14:39:10.375Z,8.10
2023-05-23T14:40:07.584Z,8.10
2023-05-23T14:41:07.550Z,8.30
2023-05-23T14:42:07.568Z,7.60
2023-05-23T14:43:07.592Z,8.70
2023-05-23T14:44:07.568Z,9.10
2023-05-23T15:00:06.833Z,5.80
2023-05-23T15:02:05.706Z,5.40
2023-05-23T15:03:05.653Z,6.80
2023-05-23T15:04:05.743Z,7.50
2023-05-23T15:05:05.596Z,7.70
2023-05-23T15:06:05.577Z,7.90
2023-05-23T15:07:05.566Z,8.40
2023-05-23T15:08:05.537Z,9.90
2023-05-23T15:09:05.552Z,9.90
2023-05-23T15:10:05.530Z,9.80
2023-05-23T15:11:05.501Z,9.80
2023-05-23T15:12:05.541Z,9.40
2023-05-23T15:13:05.508Z,9.90
2023-05-23T15:14:05.476Z,9.30
2023-05-23T15:15:05.504Z,9.00
2023-05-23T15:16:05.497Z,9.00
2023-05-23T15:17:05.433Z,8.50
2023-05-23T15:18:05.508Z,9.00
2023-05-23T15:19:05.516Z,8.70
2023-05-23T15:20:07.229Z,8.90
2023-05-23T15:21:05.392Z,8.20
2023-05-23T15:26:02.133Z,6.10
2023-05-23T15:27:15.678Z,6.90
2023-05-23T15:28:02.081Z,6.60
2023-05-23T15:29:02.040Z,6.80
2023-05-23T15:30:02.081Z,6.50
2023-05-23T15:31:02.044Z,6.70
2023-05-23T15:50:43.525Z,3.90
2023-05-23T15:51:43.251Z,4.00
2023-05-23T15:52:43.285Z,3.80
2023-05-23T15:53:59.742Z,4.10
2023-05-23T15:54:43.231Z,4.10
2023-05-23T15:55:43.223Z,4.20
2023-05-23T15:56:43.198Z,3.90
2023-05-23T15:57:43.196Z,3.50
2023-05-23T15:58:43.212Z,3.60
2023-05-23T15:59:43.152Z,3.90
2023-05-23T16:15:29.832Z,2.70
2023-05-23T16:16:29.881Z,3.30
2023-05-23T16:24:18.031Z,3.30
2023-05-23T16:25:18.021Z,3.20
2023-05-23T16:33:22.088Z,3.80
2023-05-23T16:49:12.149Z,3.60
2023-05-23T16:50:12.183Z,3.40
2023-05-23T16:51:12.110Z,3.30
2023-05-23T16:52:12.108Z,3.60
2023-05-23T16:53:12.173Z,3.80
2023-05-23T16:54:12.056Z,3.70
2023-05-23T16:55:12.052Z,3.70
2023-05-23T16:56:22.724Z,2.50
